Saint Louis, Missouri
Current Conditions -  °F | °C
As of 1:53 AM on Saturday 20 Dec 2014 (Local Time) from KCPS Reporting Station
Overcast Overcast  
Wind Chill: 35°   Ceiling: 3000
Heat Index: 35°   Visibility: 8mi
Dew Point: 29°   Wind: 3mph
Humidity: 78%   Direction: 90°E
Pressure: 30.27"   Gusts: NA
Location:  38.63°N, 90.24°W
Report Text: KCPS 200753Z AUTO 09003KT 8SM OVC030 02/M02 A3027 RMK AO2 SLP252 T00171017 TSNO
Loading
Personal Weather Stations






























Interactive Weather Map New forecast layout! Learn more

10-Day Weather Forecast

Advertisements
Track Severe Weather on mobile